sensor_id;sensor_type;location;lat;lon;timestamp;P1;durP1;ratioP1;P2;durP2;ratioP2
58756;SDS011;44527;47.460;19.016;2023-07-30T00:02:21;2.40;;;1.70;;
58756;SDS011;44527;47.460;19.016;2023-07-30T00:05:24;7.65;;;1.60;;
58756;SDS011;44527;47.460;19.016;2023-07-30T00:08:26;6.45;;;1.70;;
58756;SDS011;44527;47.460;19.016;2023-07-30T00:11:29;7.45;;;1.50;;
58756;SDS011;44527;47.460;19.016;2023-07-30T00:14:31;3.08;;;1.50;;
58756;SDS011;44527;47.460;19.016;2023-07-30T00:17:34;2.92;;;1.50;;
58756;SDS011;44527;47.460;19.016;2023-07-30T00:20:36;1.95;;;1.35;;
58756;SDS011;44527;47.460;19.016;2023-07-30T00:23:39;1.85;;;1.27;;
58756;SDS011;44527;47.460;19.016;2023-07-30T00:26:41;2.60;;;1.52;;
58756;SDS011;44527;47.460;19.016;2023-07-30T00:29:44;2.65;;;1.27;;
58756;SDS011;44527;47.460;19.016;2023-07-30T00:32:46;2.28;;;1.35;;
58756;SDS011;44527;47.460;19.016;2023-07-30T00:35:50;2.87;;;1.45;;
58756;SDS011;44527;47.460;19.016;2023-07-30T00:38:54;2.50;;;1.58;;
58756;SDS011;44527;47.460;19.016;2023-07-30T00:41:56;3.33;;;1.23;;
58756;SDS011;44527;47.460;19.016;2023-07-30T00:44:58;2.62;;;1.40;;
58756;SDS011;44527;47.460;19.016;2023-07-30T00:48:01;2.90;;;1.10;;
58756;SDS011;44527;47.460;19.016;2023-07-30T00:51:04;3.08;;;1.20;;
58756;SDS011;44527;47.460;19.016;2023-07-30T00:54:07;3.00;;;1.33;;
58756;SDS011;44527;47.460;19.016;2023-07-30T00:57:09;6.37;;;1.50;;
58756;SDS011;44527;47.460;19.016;2023-07-30T01:00:12;4.32;;;1.40;;
58756;SDS011;44527;47.460;19.016;2023-07-30T01:03:16;3.15;;;1.52;;
58756;SDS011;44527;47.460;19.016;2023-07-30T01:06:19;3.37;;;1.40;;
58756;SDS011;44527;47.460;19.016;2023-07-30T01:09:22;3.30;;;1.30;;
58756;SDS011;44527;47.460;19.016;2023-07-30T01:12:25;3.58;;;1.10;;
58756;SDS011;44527;47.460;19.016;2023-07-30T01:15:30;1.90;;;1.20;;
58756;SDS011;44527;47.460;19.016;2023-07-30T01:18:33;2.95;;;1.10;;
58756;SDS011;44527;47.460;19.016;2023-07-30T01:21:36;2.90;;;1.42;;
58756;SDS011;44527;47.460;19.016;2023-07-30T01:24:40;5.68;;;1.20;;
58756;SDS011;44527;47.460;19.016;2023-07-30T01:27:47;2.40;;;1.52;;
58756;SDS011;44527;47.460;19.016;2023-07-30T01:30:53;2.40;;;1.35;;
58756;SDS011;44527;47.460;19.016;2023-07-30T01:33:58;2.80;;;1.42;;
58756;SDS011;44527;47.460;19.016;2023-07-30T01:37:04;1.90;;;1.15;;
58756;SDS011;44527;47.460;19.016;2023-07-30T01:40:11;2.67;;;1.52;;
58756;SDS011;44527;47.460;19.016;2023-07-30T01:43:14;2.47;;;1.48;;
58756;SDS011;44527;47.460;19.016;2023-07-30T01:46:17;2.03;;;1.35;;
58756;SDS011;44527;47.460;19.016;2023-07-30T01:49:19;2.00;;;1.33;;
58756;SDS011;44527;47.460;19.016;2023-07-30T01:52:21;7.25;;;1.42;;
58756;SDS011;44527;47.460;19.016;2023-07-30T01:55:24;3.10;;;1.50;;
58756;SDS011;44527;47.460;19.016;2023-07-30T01:58:26;1.83;;;1.27;;
58756;SDS011;44527;47.460;19.016;2023-07-30T02:01:29;4.32;;;1.17;;
58756;SDS011;44527;47.460;19.016;2023-07-30T02:04:31;2.37;;;1.50;;
58756;SDS011;44527;47.460;19.016;2023-07-30T02:07:34;3.12;;;1.40;;
58756;SDS011;44527;47.460;19.016;2023-07-30T02:10:37;4.15;;;1.30;;
58756;SDS011;44527;47.460;19.016;2023-07-30T02:13:39;6.07;;;1.17;;
58756;SDS011;44527;47.460;19.016;2023-07-30T02:16:41;2.95;;;1.50;;
58756;SDS011;44527;47.460;19.016;2023-07-30T02:19:44;2.60;;;1.40;;
58756;SDS011;44527;47.460;19.016;2023-07-30T02:22:46;3.53;;;1.40;;
58756;SDS011;44527;47.460;19.016;2023-07-30T02:25:49;3.50;;;1.35;;
58756;SDS011;44527;47.460;19.016;2023-07-30T02:28:52;2.95;;;1.30;;
58756;SDS011;44527;47.460;19.016;2023-07-30T02:31:54;2.75;;;1.30;;
58756;SDS011;44527;47.460;19.016;2023-07-30T02:34:57;5.20;;;1.40;;
58756;SDS011;44527;47.460;19.016;2023-07-30T02:37:59;3.42;;;1.40;;
58756;SDS011;44527;47.460;19.016;2023-07-30T02:41:01;2.58;;;1.40;;
58756;SDS011;44527;47.460;19.016;2023-07-30T02:44:04;2.67;;;1.30;;
58756;SDS011;44527;47.460;19.016;2023-07-30T02:47:06;2.08;;;1.20;;
58756;SDS011;44527;47.460;19.016;2023-07-30T02:50:09;2.65;;;1.40;;
58756;SDS011;44527;47.460;19.016;2023-07-30T02:53:11;6.40;;;1.50;;
58756;SDS011;44527;47.460;19.016;2023-07-30T02:56:14;4.12;;;1.65;;
58756;SDS011;44527;47.460;19.016;2023-07-30T02:59:16;2.47;;;1.48;;
58756;SDS011;44527;47.460;19.016;2023-07-30T03:02:18;2.92;;;1.70;;
58756;SDS011;44527;47.460;19.016;2023-07-30T03:05:21;2.80;;;1.25;;
58756;SDS011;44527;47.460;19.016;2023-07-30T03:08:24;3.33;;;1.60;;
58756;SDS011;44527;47.460;19.016;2023-07-30T03:11:26;3.83;;;1.58;;
58756;SDS011;44527;47.460;19.016;2023-07-30T03:14:29;1.92;;;1.10;;
58756;SDS011;44527;47.460;19.016;2023-07-30T03:17:31;3.80;;;1.45;;
58756;SDS011;44527;47.460;19.016;2023-07-30T03:20:34;3.85;;;1.55;;
58756;SDS011;44527;47.460;19.016;2023-07-30T03:23:36;2.40;;;1.30;;
58756;SDS011;44527;47.460;19.016;2023-07-30T03:26:39;3.03;;;1.62;;
58756;SDS011;44527;47.460;19.016;2023-07-30T03:29:41;2.62;;;1.50;;
58756;SDS011;44527;47.460;19.016;2023-07-30T03:32:43;4.82;;;1.67;;
58756;SDS011;44527;47.460;19.016;2023-07-30T03:35:46;7.22;;;1.80;;
58756;SDS011;44527;47.460;19.016;2023-07-30T03:38:48;8.13;;;1.80;;
58756;SDS011;44527;47.460;19.016;2023-07-30T03:41:51;3.87;;;1.67;;
58756;SDS011;44527;47.460;19.016;2023-07-30T03:44:53;5.22;;;1.80;;
58756;SDS011;44527;47.460;19.016;2023-07-30T03:47:56;3.55;;;1.67;;
58756;SDS011;44527;47.460;19.016;2023-07-30T03:50:58;5.60;;;2.50;;
58756;SDS011;44527;47.460;19.016;2023-07-30T03:54:01;3.85;;;1.92;;
58756;SDS011;44527;47.460;19.016;2023-07-30T03:57:03;3.92;;;1.60;;
58756;SDS011;44527;47.460;19.016;2023-07-30T04:00:06;2.83;;;1.67;;
58756;SDS011;44527;47.460;19.016;2023-07-30T04:03:14;5.45;;;1.73;;
58756;SDS011;44527;47.460;19.016;2023-07-30T04:06:17;3.97;;;1.60;;
58756;SDS011;44527;47.460;19.016;2023-07-30T04:09:19;2.10;;;1.37;;
58756;SDS011;44527;47.460;19.016;2023-07-30T04:12:22;3.92;;;1.80;;
58756;SDS011;44527;47.460;19.016;2023-07-30T04:15:25;4.97;;;2.05;;
58756;SDS011;44527;47.460;19.016;2023-07-30T04:18:27;3.08;;;1.35;;
58756;SDS011;44527;47.460;19.016;2023-07-30T04:21:29;3.83;;;1.77;;
58756;SDS011;44527;47.460;19.016;2023-07-30T04:24:32;2.80;;;1.60;;
58756;SDS011;44527;47.460;19.016;2023-07-30T04:27:34;2.50;;;1.58;;
58756;SDS011;44527;47.460;19.016;2023-07-30T04:30:37;3.92;;;1.80;;
58756;SDS011;44527;47.460;19.016;2023-07-30T04:33:40;6.40;;;1.58;;
58756;SDS011;44527;47.460;19.016;2023-07-30T04:36:43;4.20;;;1.60;;
58756;SDS011;44527;47.460;19.016;2023-07-30T04:39:46;4.65;;;1.62;;
58756;SDS011;44527;47.460;19.016;2023-07-30T04:42:49;2.92;;;1.77;;
58756;SDS011;44527;47.460;19.016;2023-07-30T04:45:52;3.58;;;1.73;;
58756;SDS011;44527;47.460;19.016;2023-07-30T04:48:54;4.72;;;1.70;;
58756;SDS011;44527;47.460;19.016;2023-07-30T04:51:57;4.18;;;1.83;;
58756;SDS011;44527;47.460;19.016;2023-07-30T04:54:59;3.33;;;1.30;;
58756;SDS011;44527;47.460;19.016;2023-07-30T04:58:02;2.28;;;1.50;;
58756;SDS011;44527;47.460;19.016;2023-07-30T05:01:05;3.40;;;1.37;;
58756;SDS011;44527;47.460;19.016;2023-07-30T05:04:08;2.70;;;1.80;;
58756;SDS011;44527;47.460;19.016;2023-07-30T05:07:10;3.33;;;1.80;;
58756;SDS011;44527;47.460;19.016;2023-07-30T05:10:13;5.10;;;1.90;;
58756;SDS011;44527;47.460;19.016;2023-07-30T05:13:15;2.65;;;1.80;;
58756;SDS011;44527;47.460;19.016;2023-07-30T05:16:17;2.35;;;1.40;;
58756;SDS011;44527;47.460;19.016;2023-07-30T05:19:20;3.33;;;1.55;;
58756;SDS011;44527;47.460;19.016;2023-07-30T05:22:22;4.28;;;2.10;;
58756;SDS011;44527;47.460;19.016;2023-07-30T05:25:26;4.95;;;1.60;;
58756;SDS011;44527;47.460;19.016;2023-07-30T05:28:28;4.53;;;1.65;;
58756;SDS011;44527;47.460;19.016;2023-07-30T05:31:31;3.97;;;1.87;;
58756;SDS011;44527;47.460;19.016;2023-07-30T05:34:33;4.57;;;1.92;;
58756;SDS011;44527;47.460;19.016;2023-07-30T05:37:36;7.90;;;3.37;;
58756;SDS011;44527;47.460;19.016;2023-07-30T05:40:38;6.43;;;1.70;;
58756;SDS011;44527;47.460;19.016;2023-07-30T05:43:41;4.22;;;1.70;;
58756;SDS011;44527;47.460;19.016;2023-07-30T05:46:43;3.12;;;1.67;;
58756;SDS011;44527;47.460;19.016;2023-07-30T05:49:46;2.80;;;1.60;;
58756;SDS011;44527;47.460;19.016;2023-07-30T05:52:48;4.35;;;1.90;;
58756;SDS011;44527;47.460;19.016;2023-07-30T05:55:51;4.80;;;1.98;;
58756;SDS011;44527;47.460;19.016;2023-07-30T05:58:53;3.03;;;1.70;;
58756;SDS011;44527;47.460;19.016;2023-07-30T06:01:56;3.15;;;1.73;;
58756;SDS011;44527;47.460;19.016;2023-07-30T06:05:00;5.40;;;1.75;;
58756;SDS011;44527;47.460;19.016;2023-07-30T06:08:02;7.60;;;2.45;;
58756;SDS011;44527;47.460;19.016;2023-07-30T06:11:07;3.62;;;1.52;;
58756;SDS011;44527;47.460;19.016;2023-07-30T06:14:10;7.25;;;1.77;;
58756;SDS011;44527;47.460;19.016;2023-07-30T06:17:12;3.87;;;1.70;;
58756;SDS011;44527;47.460;19.016;2023-07-30T06:20:15;3.62;;;1.83;;
58756;SDS011;44527;47.460;19.016;2023-07-30T06:23:17;2.92;;;1.65;;
58756;SDS011;44527;47.460;19.016;2023-07-30T06:26:19;3.80;;;1.85;;
58756;SDS011;44527;47.460;19.016;2023-07-30T06:29:22;3.70;;;1.48;;
58756;SDS011;44527;47.460;19.016;2023-07-30T06:32:24;2.42;;;1.70;;
58756;SDS011;44527;47.460;19.016;2023-07-30T06:35:28;4.57;;;1.40;;
58756;SDS011;44527;47.460;19.016;2023-07-30T06:38:30;2.78;;;1.73;;
58756;SDS011;44527;47.460;19.016;2023-07-30T06:41:33;2.80;;;1.73;;
58756;SDS011;44527;47.460;19.016;2023-07-30T06:44:36;4.85;;;1.80;;
58756;SDS011;44527;47.460;19.016;2023-07-30T06:47:38;2.58;;;1.83;;
58756;SDS011;44527;47.460;19.016;2023-07-30T06:50:41;6.12;;;1.77;;
58756;SDS011;44527;47.460;19.016;2023-07-30T06:53:44;2.97;;;1.92;;
58756;SDS011;44527;47.460;19.016;2023-07-30T06:56:46;3.17;;;1.73;;
58756;SDS011;44527;47.460;19.016;2023-07-30T06:59:48;2.47;;;1.50;;
58756;SDS011;44527;47.460;19.016;2023-07-30T07:02:53;3.12;;;1.73;;
58756;SDS011;44527;47.460;19.016;2023-07-30T07:05:55;3.90;;;1.75;;
58756;SDS011;44527;47.460;19.016;2023-07-30T07:08:58;4.90;;;1.58;;
58756;SDS011;44527;47.460;19.016;2023-07-30T07:12:00;8.98;;;1.75;;
58756;SDS011;44527;47.460;19.016;2023-07-30T07:15:03;2.22;;;1.40;;
58756;SDS011;44527;47.460;19.016;2023-07-30T07:18:06;3.50;;;2.20;;
58756;SDS011;44527;47.460;19.016;2023-07-30T07:21:09;7.53;;;2.40;;
58756;SDS011;44527;47.460;19.016;2023-07-30T07:24:12;5.18;;;2.17;;
58756;SDS011;44527;47.460;19.016;2023-07-30T07:27:14;2.80;;;1.80;;
58756;SDS011;44527;47.460;19.016;2023-07-30T07:30:16;2.12;;;1.70;;
58756;SDS011;44527;47.460;19.016;2023-07-30T07:33:19;3.28;;;1.62;;
58756;SDS011;44527;47.460;19.016;2023-07-30T07:36:21;5.53;;;1.80;;
58756;SDS011;44527;47.460;19.016;2023-07-30T07:39:24;5.80;;;1.55;;
58756;SDS011;44527;47.460;19.016;2023-07-30T07:42:26;4.50;;;2.28;;
58756;SDS011;44527;47.460;19.016;2023-07-30T07:45:28;4.05;;;1.83;;
58756;SDS011;44527;47.460;19.016;2023-07-30T07:48:31;4.65;;;2.35;;
58756;SDS011;44527;47.460;19.016;2023-07-30T07:51:33;3.72;;;1.80;;
58756;SDS011;44527;47.460;19.016;2023-07-30T07:54:37;3.53;;;1.83;;
58756;SDS011;44527;47.460;19.016;2023-07-30T07:57:39;6.62;;;1.90;;
58756;SDS011;44527;47.460;19.016;2023-07-30T08:00:42;4.30;;;1.65;;
58756;SDS011;44527;47.460;19.016;2023-07-30T08:03:44;4.12;;;1.92;;
58756;SDS011;44527;47.460;19.016;2023-07-30T08:06:47;2.62;;;1.62;;
58756;SDS011;44527;47.460;19.016;2023-07-30T08:09:50;7.40;;;2.00;;
58756;SDS011;44527;47.460;19.016;2023-07-30T08:12:53;8.32;;;2.42;;
58756;SDS011;44527;47.460;19.016;2023-07-30T08:15:56;10.20;;;1.67;;
58756;SDS011;44527;47.460;19.016;2023-07-30T08:18:58;3.67;;;1.92;;
58756;SDS011;44527;47.460;19.016;2023-07-30T08:22:01;4.10;;;1.92;;
58756;SDS011;44527;47.460;19.016;2023-07-30T08:25:03;4.28;;;1.92;;
58756;SDS011;44527;47.460;19.016;2023-07-30T08:28:07;6.65;;;1.83;;
58756;SDS011;44527;47.460;19.016;2023-07-30T08:31:09;3.55;;;2.00;;
58756;SDS011;44527;47.460;19.016;2023-07-30T08:34:11;3.60;;;1.80;;
58756;SDS011;44527;47.460;19.016;2023-07-30T08:37:14;3.00;;;2.00;;
58756;SDS011;44527;47.460;19.016;2023-07-30T08:40:16;5.20;;;2.00;;
58756;SDS011;44527;47.460;19.016;2023-07-30T08:43:19;2.97;;;1.92;;
58756;SDS011;44527;47.460;19.016;2023-07-30T08:46:22;7.37;;;2.25;;
58756;SDS011;44527;47.460;19.016;2023-07-30T08:49:24;2.65;;;1.60;;
58756;SDS011;44527;47.460;19.016;2023-07-30T08:52:27;3.47;;;1.83;;
58756;SDS011;44527;47.460;19.016;2023-07-30T08:55:32;4.15;;;2.33;;
58756;SDS011;44527;47.460;19.016;2023-07-30T08:58:36;6.45;;;2.50;;
58756;SDS011;44527;47.460;19.016;2023-07-30T09:01:39;2.72;;;2.00;;
58756;SDS011;44527;47.460;19.016;2023-07-30T09:04:43;5.45;;;2.17;;
58756;SDS011;44527;47.460;19.016;2023-07-30T09:07:50;3.58;;;1.83;;
58756;SDS011;44527;47.460;19.016;2023-07-30T09:10:52;12.63;;;2.65;;
58756;SDS011;44527;47.460;19.016;2023-07-30T09:13:55;4.10;;;2.20;;
58756;SDS011;44527;47.460;19.016;2023-07-30T09:16:59;4.68;;;2.10;;
58756;SDS011;44527;47.460;19.016;2023-07-30T09:20:02;4.80;;;2.05;;
58756;SDS011;44527;47.460;19.016;2023-07-30T09:23:06;3.53;;;2.20;;
58756;SDS011;44527;47.460;19.016;2023-07-30T09:26:09;3.72;;;1.90;;
58756;SDS011;44527;47.460;19.016;2023-07-30T09:29:12;5.05;;;2.05;;
58756;SDS011;44527;47.460;19.016;2023-07-30T09:32:15;6.10;;;2.35;;
58756;SDS011;44527;47.460;19.016;2023-07-30T09:35:18;6.20;;;2.00;;
58756;SDS011;44527;47.460;19.016;2023-07-30T09:38:20;4.12;;;2.00;;
58756;SDS011;44527;47.460;19.016;2023-07-30T09:41:23;5.18;;;2.42;;
58756;SDS011;44527;47.460;19.016;2023-07-30T09:44:26;8.20;;;2.50;;
58756;SDS011;44527;47.460;19.016;2023-07-30T09:47:32;4.30;;;2.75;;
58756;SDS011;44527;47.460;19.016;2023-07-30T09:50:37;3.40;;;1.87;;
58756;SDS011;44527;47.460;19.016;2023-07-30T09:53:40;3.97;;;2.35;;
58756;SDS011;44527;47.460;19.016;2023-07-30T09:56:44;5.68;;;2.42;;
58756;SDS011;44527;47.460;19.016;2023-07-30T09:59:47;4.05;;;2.65;;
58756;SDS011;44527;47.460;19.016;2023-07-30T10:02:49;4.68;;;2.53;;
58756;SDS011;44527;47.460;19.016;2023-07-30T10:05:53;4.05;;;2.33;;
58756;SDS011;44527;47.460;19.016;2023-07-30T10:09:03;4.22;;;2.28;;
58756;SDS011;44527;47.460;19.016;2023-07-30T10:12:07;4.68;;;2.12;;
58756;SDS011;44527;47.460;19.016;2023-07-30T10:15:09;7.57;;;2.83;;
58756;SDS011;44527;47.460;19.016;2023-07-30T10:18:12;6.25;;;2.65;;
58756;SDS011;44527;47.460;19.016;2023-07-30T10:21:21;6.30;;;2.75;;
58756;SDS011;44527;47.460;19.016;2023-07-30T10:24:25;5.50;;;2.42;;
58756;SDS011;44527;47.460;19.016;2023-07-30T10:27:39;4.12;;;2.40;;
58756;SDS011;44527;47.460;19.016;2023-07-30T10:30:42;4.43;;;2.70;;
58756;SDS011;44527;47.460;19.016;2023-07-30T10:34:01;3.55;;;2.70;;
58756;SDS011;44527;47.460;19.016;2023-07-30T10:37:09;4.85;;;2.83;;
58756;SDS011;44527;47.460;19.016;2023-07-30T10:40:17;6.45;;;2.80;;
58756;SDS011;44527;47.460;19.016;2023-07-30T10:43:20;7.45;;;2.75;;
58756;SDS011;44527;47.460;19.016;2023-07-30T10:46:22;5.20;;;3.25;;
58756;SDS011;44527;47.460;19.016;2023-07-30T10:49:25;6.28;;;2.90;;
58756;SDS011;44527;47.460;19.016;2023-07-30T10:52:27;9.10;;;2.80;;
58756;SDS011;44527;47.460;19.016;2023-07-30T10:55:30;3.80;;;2.20;;
58756;SDS011;44527;47.460;19.016;2023-07-30T10:58:33;4.32;;;2.62;;
58756;SDS011;44527;47.460;19.016;2023-07-30T11:01:38;5.43;;;2.70;;
58756;SDS011;44527;47.460;19.016;2023-07-30T11:04:42;7.50;;;2.50;;
58756;SDS011;44527;47.460;19.016;2023-07-30T11:07:51;4.20;;;2.40;;
58756;SDS011;44527;47.460;19.016;2023-07-30T11:10:54;5.68;;;2.60;;
58756;SDS011;44527;47.460;19.016;2023-07-30T11:13:57;3.10;;;2.30;;
58756;SDS011;44527;47.460;19.016;2023-07-30T11:17:00;3.08;;;2.22;;
58756;SDS011;44527;47.460;19.016;2023-07-30T11:20:03;5.15;;;2.60;;
58756;SDS011;44527;47.460;19.016;2023-07-30T11:26:22;2.90;;;2.17;;
58756;SDS011;44527;47.460;19.016;2023-07-30T11:29:24;3.55;;;2.35;;
58756;SDS011;44527;47.460;19.016;2023-07-30T11:32:27;3.67;;;2.28;;
58756;SDS011;44527;47.460;19.016;2023-07-30T11:35:31;3.20;;;2.20;;
58756;SDS011;44527;47.460;19.016;2023-07-30T11:38:34;3.25;;;2.50;;
58756;SDS011;44527;47.460;19.016;2023-07-30T11:41:37;3.58;;;2.45;;
58756;SDS011;44527;47.460;19.016;2023-07-30T11:44:41;3.40;;;2.50;;
58756;SDS011;44527;47.460;19.016;2023-07-30T11:47:43;3.25;;;2.60;;
58756;SDS011;44527;47.460;19.016;2023-07-30T11:50:50;4.20;;;2.60;;
58756;SDS011;44527;47.460;19.016;2023-07-30T11:53:56;3.33;;;2.50;;
58756;SDS011;44527;47.460;19.016;2023-07-30T11:57:00;3.72;;;2.70;;
58756;SDS011;44527;47.460;19.016;2023-07-30T12:00:03;4.40;;;2.70;;
58756;SDS011;44527;47.460;19.016;2023-07-30T12:03:12;5.57;;;2.53;;
58756;SDS011;44527;47.460;19.016;2023-07-30T12:06:15;7.68;;;2.40;;
58756;SDS011;44527;47.460;19.016;2023-07-30T12:09:19;3.28;;;2.20;;
58756;SDS011;44527;47.460;19.016;2023-07-30T12:12:27;4.90;;;2.60;;
58756;SDS011;44527;47.460;19.016;2023-07-30T12:15:29;3.92;;;2.17;;
58756;SDS011;44527;47.460;19.016;2023-07-30T12:18:32;3.53;;;2.33;;
58756;SDS011;44527;47.460;19.016;2023-07-30T12:21:34;3.20;;;2.47;;
58756;SDS011;44527;47.460;19.016;2023-07-30T12:24:41;3.80;;;2.45;;
58756;SDS011;44527;47.460;19.016;2023-07-30T12:27:43;3.50;;;2.22;;
58756;SDS011;44527;47.460;19.016;2023-07-30T12:30:45;4.32;;;2.08;;
58756;SDS011;44527;47.460;19.016;2023-07-30T12:33:48;4.05;;;2.20;;
58756;SDS011;44527;47.460;19.016;2023-07-30T12:36:50;2.92;;;2.15;;
58756;SDS011;44527;47.460;19.016;2023-07-30T12:39:52;4.55;;;2.08;;
58756;SDS011;44527;47.460;19.016;2023-07-30T12:42:55;4.35;;;2.10;;
58756;SDS011;44527;47.460;19.016;2023-07-30T12:45:57;2.40;;;1.55;;
58756;SDS011;44527;47.460;19.016;2023-07-30T12:49:00;6.57;;;1.37;;
58756;SDS011;44527;47.460;19.016;2023-07-30T12:52:05;3.25;;;1.00;;
58756;SDS011;44527;47.460;19.016;2023-07-30T12:55:08;2.35;;;1.30;;
58756;SDS011;44527;47.460;19.016;2023-07-30T12:58:10;4.18;;;1.33;;
58756;SDS011;44527;47.460;19.016;2023-07-30T13:01:14;1.55;;;1.10;;
58756;SDS011;44527;47.460;19.016;2023-07-30T13:04:16;2.45;;;1.60;;
58756;SDS011;44527;47.460;19.016;2023-07-30T13:07:19;2.80;;;1.60;;
58756;SDS011;44527;47.460;19.016;2023-07-30T13:10:21;2.95;;;1.50;;
58756;SDS011;44527;47.460;19.016;2023-07-30T13:13:24;1.90;;;1.25;;
58756;SDS011;44527;47.460;19.016;2023-07-30T13:16:26;2.25;;;1.12;;
58756;SDS011;44527;47.460;19.016;2023-07-30T13:19:28;2.10;;;1.20;;
58756;SDS011;44527;47.460;19.016;2023-07-30T13:22:32;1.75;;;1.02;;
58756;SDS011;44527;47.460;19.016;2023-07-30T13:25:34;2.33;;;1.00;;
58756;SDS011;44527;47.460;19.016;2023-07-30T13:28:36;1.70;;;1.08;;
58756;SDS011;44527;47.460;19.016;2023-07-30T13:31:39;3.50;;;1.40;;
58756;SDS011;44527;47.460;19.016;2023-07-30T13:34:42;4.10;;;1.30;;
58756;SDS011;44527;47.460;19.016;2023-07-30T13:37:45;2.17;;;1.12;;
58756;SDS011;44527;47.460;19.016;2023-07-30T13:40:47;2.70;;;1.05;;
58756;SDS011;44527;47.460;19.016;2023-07-30T13:43:49;1.33;;;0.98;;
58756;SDS011;44527;47.460;19.016;2023-07-30T13:46:52;2.55;;;1.30;;
58756;SDS011;44527;47.460;19.016;2023-07-30T13:49:56;3.37;;;1.25;;
58756;SDS011;44527;47.460;19.016;2023-07-30T13:52:58;1.85;;;1.20;;
58756;SDS011;44527;47.460;19.016;2023-07-30T13:56:00;4.35;;;1.25;;
58756;SDS011;44527;47.460;19.016;2023-07-30T13:59:03;2.00;;;1.15;;
58756;SDS011;44527;47.460;19.016;2023-07-30T14:02:06;2.42;;;1.23;;
58756;SDS011;44527;47.460;19.016;2023-07-30T14:05:09;2.00;;;1.50;;
58756;SDS011;44527;47.460;19.016;2023-07-30T14:08:12;3.05;;;1.50;;
58756;SDS011;44527;47.460;19.016;2023-07-30T14:11:15;4.87;;;1.37;;
58756;SDS011;44527;47.460;19.016;2023-07-30T14:14:17;2.62;;;1.20;;
58756;SDS011;44527;47.460;19.016;2023-07-30T14:17:19;2.15;;;1.20;;
58756;SDS011;44527;47.460;19.016;2023-07-30T14:20:22;1.58;;;1.30;;
58756;SDS011;44527;47.460;19.016;2023-07-30T14:23:24;3.90;;;1.40;;
58756;SDS011;44527;47.460;19.016;2023-07-30T14:26:26;1.45;;;1.15;;
58756;SDS011;44527;47.460;19.016;2023-07-30T14:29:29;1.67;;;1.10;;
58756;SDS011;44527;47.460;19.016;2023-07-30T14:32:31;2.15;;;1.35;;
58756;SDS011;44527;47.460;19.016;2023-07-30T14:35:34;3.58;;;1.23;;
58756;SDS011;44527;47.460;19.016;2023-07-30T14:38:38;2.37;;;1.10;;
58756;SDS011;44527;47.460;19.016;2023-07-30T14:41:40;1.40;;;1.10;;
58756;SDS011;44527;47.460;19.016;2023-07-30T14:44:43;1.52;;;1.20;;
58756;SDS011;44527;47.460;19.016;2023-07-30T14:47:45;3.97;;;1.20;;
58756;SDS011;44527;47.460;19.016;2023-07-30T14:50:50;2.42;;;1.40;;
58756;SDS011;44527;47.460;19.016;2023-07-30T14:53:53;2.00;;;1.30;;
58756;SDS011;44527;47.460;19.016;2023-07-30T14:56:55;2.87;;;1.08;;
58756;SDS011;44527;47.460;19.016;2023-07-30T14:59:58;2.80;;;1.55;;
58756;SDS011;44527;47.460;19.016;2023-07-30T15:03:02;2.62;;;1.27;;
58756;SDS011;44527;47.460;19.016;2023-07-30T15:06:07;2.20;;;1.20;;
58756;SDS011;44527;47.460;19.016;2023-07-30T15:09:09;2.45;;;1.35;;
58756;SDS011;44527;47.460;19.016;2023-07-30T15:12:12;2.40;;;1.30;;
58756;SDS011;44527;47.460;19.016;2023-07-30T15:15:14;2.22;;;1.30;;
58756;SDS011;44527;47.460;19.016;2023-07-30T15:18:16;1.20;;;0.90;;
58756;SDS011;44527;47.460;19.016;2023-07-30T15:21:19;1.48;;;1.02;;
58756;SDS011;44527;47.460;19.016;2023-07-30T15:24:21;2.37;;;1.23;;
58756;SDS011;44527;47.460;19.016;2023-07-30T15:27:24;3.87;;;1.37;;
58756;SDS011;44527;47.460;19.016;2023-07-30T15:30:26;1.98;;;1.35;;
58756;SDS011;44527;47.460;19.016;2023-07-30T15:33:29;2.03;;;1.30;;
58756;SDS011;44527;47.460;19.016;2023-07-30T15:36:31;1.50;;;1.10;;
58756;SDS011;44527;47.460;19.016;2023-07-30T15:39:34;1.80;;;1.20;;
58756;SDS011;44527;47.460;19.016;2023-07-30T15:42:38;1.33;;;1.00;;
58756;SDS011;44527;47.460;19.016;2023-07-30T15:45:41;1.73;;;1.20;;
58756;SDS011;44527;47.460;19.016;2023-07-30T15:48:49;2.42;;;1.45;;
58756;SDS011;44527;47.460;19.016;2023-07-30T15:51:51;2.28;;;1.10;;
58756;SDS011;44527;47.460;19.016;2023-07-30T15:54:54;2.28;;;1.00;;
58756;SDS011;44527;47.460;19.016;2023-07-30T15:57:56;1.50;;;1.30;;
58756;SDS011;44527;47.460;19.016;2023-07-30T16:01:05;3.25;;;1.35;;
58756;SDS011;44527;47.460;19.016;2023-07-30T16:04:10;3.10;;;1.37;;
58756;SDS011;44527;47.460;19.016;2023-07-30T16:07:13;1.90;;;1.40;;
58756;SDS011;44527;47.460;19.016;2023-07-30T16:10:16;2.15;;;1.27;;
58756;SDS011;44527;47.460;19.016;2023-07-30T16:13:18;2.80;;;1.33;;
58756;SDS011;44527;47.460;19.016;2023-07-30T16:16:21;2.75;;;1.60;;
58756;SDS011;44527;47.460;19.016;2023-07-30T16:19:24;3.60;;;1.27;;
58756;SDS011;44527;47.460;19.016;2023-07-30T16:22:27;4.82;;;1.30;;
58756;SDS011;44527;47.460;19.016;2023-07-30T16:25:29;2.22;;;1.27;;
58756;SDS011;44527;47.460;19.016;2023-07-30T16:28:31;3.15;;;1.02;;
58756;SDS011;44527;47.460;19.016;2023-07-30T16:31:34;1.80;;;1.10;;
58756;SDS011;44527;47.460;19.016;2023-07-30T16:34:36;3.72;;;1.10;;
58756;SDS011;44527;47.460;19.016;2023-07-30T16:37:39;2.33;;;1.00;;
58756;SDS011;44527;47.460;19.016;2023-07-30T16:40:41;1.55;;;1.00;;
58756;SDS011;44527;47.460;19.016;2023-07-30T16:43:43;2.35;;;1.20;;
58756;SDS011;44527;47.460;19.016;2023-07-30T16:46:46;1.73;;;1.27;;
58756;SDS011;44527;47.460;19.016;2023-07-30T16:49:48;2.45;;;1.25;;
58756;SDS011;44527;47.460;19.016;2023-07-30T16:52:51;2.12;;;1.50;;
58756;SDS011;44527;47.460;19.016;2023-07-30T16:55:54;2.00;;;1.30;;
58756;SDS011;44527;47.460;19.016;2023-07-30T16:58:57;1.55;;;1.20;;
58756;SDS011;44527;47.460;19.016;2023-07-30T17:01:59;1.30;;;0.90;;
58756;SDS011;44527;47.460;19.016;2023-07-30T17:05:02;3.33;;;1.30;;
58756;SDS011;44527;47.460;19.016;2023-07-30T17:08:05;3.87;;;1.12;;
58756;SDS011;44527;47.460;19.016;2023-07-30T17:11:08;1.95;;;1.15;;
58756;SDS011;44527;47.460;19.016;2023-07-30T17:14:11;3.67;;;1.10;;
58756;SDS011;44527;47.460;19.016;2023-07-30T17:17:13;1.70;;;1.00;;
58756;SDS011;44527;47.460;19.016;2023-07-30T17:20:15;1.65;;;1.15;;
58756;SDS011;44527;47.460;19.016;2023-07-30T17:23:18;2.20;;;1.10;;
58756;SDS011;44527;47.460;19.016;2023-07-30T17:26:20;1.58;;;1.12;;
58756;SDS011;44527;47.460;19.016;2023-07-30T17:29:23;1.52;;;1.08;;
58756;SDS011;44527;47.460;19.016;2023-07-30T17:32:25;1.70;;;1.30;;
58756;SDS011;44527;47.460;19.016;2023-07-30T17:35:29;1.25;;;0.93;;
58756;SDS011;44527;47.460;19.016;2023-07-30T17:38:31;3.12;;;1.92;;
58756;SDS011;44527;47.460;19.016;2023-07-30T17:41:34;4.30;;;2.97;;
58756;SDS011;44527;47.460;19.016;2023-07-30T17:44:38;5.32;;;3.15;;
58756;SDS011;44527;47.460;19.016;2023-07-30T17:47:42;4.78;;;2.35;;
58756;SDS011;44527;47.460;19.016;2023-07-30T17:50:45;2.40;;;1.60;;
58756;SDS011;44527;47.460;19.016;2023-07-30T17:53:47;3.80;;;1.75;;
58756;SDS011;44527;47.460;19.016;2023-07-30T17:56:54;2.12;;;1.50;;
58756;SDS011;44527;47.460;19.016;2023-07-30T17:59:57;3.22;;;1.65;;
58756;SDS011;44527;47.460;19.016;2023-07-30T18:03:02;3.17;;;1.58;;
58756;SDS011;44527;47.460;19.016;2023-07-30T18:06:04;4.53;;;1.70;;
58756;SDS011;44527;47.460;19.016;2023-07-30T18:09:06;2.83;;;1.50;;